Time;durP1;ratioP1;P1;durP2;ratioP2;P2;SDS_P1;SDS_P2;PMS_P1;PMS_P2;Temp;Humidity;BMP_temperature;BMP_pressure;BME280_temperature;BME280_humidity;BME280_pressure;Samples;Min_cycle;Max_cycle;Signal;HPM_P1;HPM_P2
2021/06/14 00:04:10;;;;;;;4.80;2.50;;;;;;;19.08;47.33;100974.16;10391948;28;20067;-74
2021/06/14 00:09:14;;;;;;;3.92;2.35;;;;;;;19.02;47.45;100972.94;10434997;28;20079;-75
2021/06/14 00:14:16;;;;;;;2.85;2.10;;;;;;;18.99;47.39;100969.72;10435987;28;20071;-75
2021/06/14 00:19:18;;;;;;;4.38;2.92;;;;;;;18.98;47.69;100965.34;10443234;28;20538;-74
2021/06/14 00:24:20;;;;;;;4.38;2.58;;;;;;;18.92;47.79;100961.44;10417892;28;20057;-74
2021/06/14 00:29:21;;;;;;;2.80;2.10;;;;;;;18.88;48.45;100965.44;10435222;28;21690;-74
2021/06/14 00:34:22;;;;;;;3.67;2.70;;;;;;;18.74;49.51;100948.00;10435853;28;20203;-74
2021/06/14 00:39:24;;;;;;;3.53;2.78;;;;;;;18.70;49.76;100963.63;10442037;28;20068;-72
2021/06/14 00:44:25;;;;;;;8.35;3.83;;;;;;;18.62;50.31;100960.06;10437293;28;20107;-73
2021/06/14 00:49:27;;;;;;;5.13;3.05;;;;;;;18.59;50.47;100971.16;10429931;28;20212;-73
2021/06/14 00:54:28;;;;;;;5.25;3.28;;;;;;;18.47;51.20;100973.28;10409221;28;20080;-74
2021/06/14 00:59:29;;;;;;;4.20;2.92;;;;;;;18.41;51.56;100961.25;10409867;28;20141;-73
2021/06/14 01:04:31;;;;;;;4.68;2.85;;;;;;;18.31;51.76;100964.03;10415184;28;20430;-73
2021/06/14 01:09:32;;;;;;;4.47;3.05;;;;;;;18.28;51.74;100961.66;10433616;28;20052;-74
2021/06/14 01:14:55;;;;;;;5.13;3.08;;;;;;;18.26;51.75;100962.84;10427879;28;20330;-74
2021/06/14 01:20:45;;;;;;;4.22;2.72;;;;;;;18.18;51.58;100956.38;10413960;28;20049;-74
2021/06/14 01:25:51;;;;;;;5.35;2.97;;;;;;;18.06;51.52;100959.47;10414397;28;20476;-74
2021/06/14 01:30:53;;;;;;;6.47;3.22;;;;;;;17.94;51.61;100940.88;10409888;28;20577;-74
2021/06/14 01:36:02;;;;;;;5.75;2.90;;;;;;;17.92;51.75;100937.47;10411956;28;20132;-74
2021/06/14 01:41:07;;;;;;;7.20;3.25;;;;;;;17.90;52.08;100949.41;10406161;28;20128;-74
2021/06/14 01:46:17;;;;;;;4.10;2.70;;;;;;;17.81;52.20;100924.22;10428003;28;20049;-74
2021/06/14 01:51:24;;;;;;;7.35;3.08;;;;;;;17.86;52.26;100946.13;10430937;28;20419;-74
2021/06/14 01:56:25;;;;;;;4.07;2.53;;;;;;;17.82;52.38;100931.31;10402224;28;20049;-74
2021/06/14 02:01:29;;;;;;;4.95;2.63;;;;;;;17.78;52.13;100935.28;10405933;28;20137;-74
2021/06/14 02:06:40;;;;;;;4.05;2.40;;;;;;;17.71;51.81;100947.66;10424679;28;20053;-74
2021/06/14 02:11:45;;;;;;;4.65;2.45;;;;;;;17.65;51.66;100952.69;10425080;28;20536;-74
2021/06/14 02:16:48;;;;;;;6.05;2.78;;;;;;;17.67;51.44;100953.38;10426910;28;20144;-74
2021/06/14 02:21:50;;;;;;;3.60;2.67;;;;;;;17.62;51.31;100946.75;10420700;28;20112;-74
2021/06/14 02:26:51;;;;;;;4.18;2.58;;;;;;;17.55;51.37;100949.22;10428783;28;20868;-73
2021/06/14 02:31:53;;;;;;;3.47;1.85;;;;;;;17.48;51.71;100946.25;10429176;28;20562;-74
2021/06/14 02:36:55;;;;;;;4.05;2.13;;;;;;;17.41;51.91;100944.34;10411492;28;20048;-74
2021/06/14 02:41:58;;;;;;;3.53;2.42;;;;;;;17.38;51.64;100939.25;10420475;28;20128;-74
2021/06/14 02:47:04;;;;;;;5.15;2.30;;;;;;;17.38;51.80;100940.09;10431893;28;20052;-74
2021/06/14 02:52:09;;;;;;;4.30;2.67;;;;;;;17.33;52.00;100936.19;10430386;28;20133;-74
2021/06/14 02:57:12;;;;;;;4.15;3.35;;;;;;;17.22;52.46;100913.88;10436577;28;20037;-74
2021/06/14 03:02:14;;;;;;;5.47;2.78;;;;;;;17.28;52.54;100923.19;10417534;28;20235;-74
2021/06/14 03:07:19;;;;;;;4.55;2.67;;;;;;;17.22;52.80;100924.63;10417222;28;20521;-74
2021/06/14 03:12:24;;;;;;;5.30;2.80;;;;;;;17.16;52.94;100910.91;10421803;28;20069;-73
2021/06/14 03:17:26;;;;;;;4.03;2.63;;;;;;;17.04;53.35;100905.75;10436157;28;20051;-73
2021/06/14 03:22:28;;;;;;;3.30;2.55;;;;;;;17.01;53.92;100908.75;10416281;28;20051;-73
2021/06/14 03:27:29;;;;;;;4.68;3.42;;;;;;;16.98;53.72;100909.06;10433684;28;20134;-73
2021/06/14 03:32:33;;;;;;;3.85;3.08;;;;;;;16.94;53.71;100900.41;10434517;28;20141;-72
2021/06/14 03:37:36;;;;;;;4.25;2.75;;;;;;;17.06;53.85;100897.53;10432108;28;20048;-73
2021/06/14 03:42:38;;;;;;;4.38;2.33;;;;;;;16.90;53.68;100903.56;10415762;28;20048;-73
2021/06/14 03:47:39;;;;;;;4.25;2.58;;;;;;;16.84;54.78;100910.34;10418608;28;20640;-74
2021/06/14 03:52:41;;;;;;;6.55;4.80;;;;;;;17.03;54.95;100908.59;10418104;28;20542;-75
2021/06/14 03:57:43;;;;;;;7.22;4.47;;;;;;;16.82;55.07;100896.22;10436001;28;20336;-75
2021/06/14 04:02:44;;;;;;;4.90;3.67;;;;;;;16.99;54.55;100915.25;10411488;28;20135;-74
2021/06/14 04:07:46;;;;;;;3.92;2.63;;;;;;;17.05;54.27;100906.59;10409391;28;20133;-76
2021/06/14 04:12:47;;;;;;;5.97;2.95;;;;;;;17.07;53.75;100902.78;10431221;28;20463;-76
2021/06/14 04:17:49;;;;;;;5.13;2.90;;;;;;;17.03;53.70;100887.91;10433495;28;20470;-75
2021/06/14 04:22:51;;;;;;;4.85;2.63;;;;;;;17.09;53.53;100903.44;10435483;28;20095;-75
2021/06/14 04:27:53;;;;;;;5.63;2.83;;;;;;;17.02;53.87;100898.81;10420898;28;20077;-75
2021/06/14 04:32:54;;;;;;;5.80;3.60;;;;;;;17.07;54.14;100900.06;10425878;28;20136;-73
2021/06/14 04:37:56;;;;;;;6.05;3.00;;;;;;;17.20;54.32;100899.69;10429081;28;20481;-74
2021/06/14 04:42:58;;;;;;;5.60;2.75;;;;;;;17.26;54.41;100903.63;10408996;28;20060;-73
2021/06/14 04:47:59;;;;;;;4.03;2.55;;;;;;;17.29;53.71;100901.50;10425532;28;20041;-74
2021/06/14 04:53:01;;;;;;;4.05;2.92;;;;;;;17.28;53.86;100901.66;10411709;28;20053;-74
2021/06/14 04:58:03;;;;;;;5.03;2.95;;;;;;;17.30;53.77;100900.50;10411792;28;20064;-74
2021/06/14 05:03:05;;;;;;;4.95;2.28;;;;;;;17.37;54.25;100899.88;10397297;28;20045;-77
2021/06/14 05:08:06;;;;;;;2.90;1.92;;;;;;;17.37;53.96;100905.25;10425392;28;20148;-76
2021/06/14 05:13:08;;;;;;;5.40;2.47;;;;;;;17.45;54.68;100908.06;10428547;28;20041;-77
2021/06/14 05:18:10;;;;;;;3.67;2.40;;;;;;;17.46;55.09;100909.75;10412297;28;20056;-74
2021/06/14 05:23:11;;;;;;;4.30;2.55;;;;;;;17.58;55.05;100897.75;10375668;22;20121;-73
2021/06/14 05:28:13;;;;;;;3.35;2.58;;;;;;;17.65;54.79;100895.28;10344928;28;20070;-71
2021/06/14 05:33:14;;;;;;;4.32;2.65;;;;;;;17.74;54.82;100899.72;10348553;28;20041;-73
2021/06/14 05:38:16;;;;;;;6.47;2.80;;;;;;;17.81;53.96;100897.28;10323747;28;20431;-73
2021/06/14 05:43:17;;;;;;;4.53;2.50;;;;;;;17.88;53.06;100889.41;10348700;28;20497;-73
2021/06/14 05:48:19;;;;;;;4.90;2.88;;;;;;;17.90;52.83;100888.31;10346962;28;20066;-72
2021/06/14 05:53:21;;;;;;;3.50;2.25;;;;;;;18.03;53.15;100896.00;10333694;28;20512;-73
2021/06/14 05:58:23;;;;;;;4.97;2.20;;;;;;;18.18;52.94;100893.56;10362575;28;20463;-72
2021/06/14 06:03:24;;;;;;;6.22;3.20;;;;;;;18.27;52.43;100889.94;10350017;28;20073;-73
2021/06/14 06:08:27;;;;;;;4.28;2.40;;;;;;;18.42;52.19;100884.81;10336706;28;20066;-71
2021/06/14 06:13:30;;;;;;;5.15;2.40;;;;;;;18.55;51.97;100895.13;10323380;28;20049;-71
2021/06/14 06:18:31;;;;;;;6.20;2.75;;;;;;;18.67;50.41;100885.75;10338923;28;20070;-73
2021/06/14 06:23:33;;;;;;;4.03;1.88;;;;;;;18.68;49.20;100887.44;10332811;28;20520;-71
2021/06/14 06:28:34;;;;;;;5.47;2.67;;;;;;;18.80;48.84;100887.19;10336892;28;20768;-71
2021/06/14 06:33:37;;;;;;;5.22;2.15;;;;;;;18.77;49.07;100880.25;10342738;28;20049;-74
2021/06/14 06:38:38;;;;;;;4.28;2.38;;;;;;;18.89;48.60;100887.06;10342008;28;20082;-71
2021/06/14 06:43:40;;;;;;;4.45;2.60;;;;;;;19.10;48.45;100882.28;10342894;28;20058;-71
2021/06/14 06:48:41;;;;;;;5.53;2.55;;;;;;;19.28;49.51;100885.69;10328157;28;20137;-74
2021/06/14 06:53:43;;;;;;;4.93;2.17;;;;;;;19.39;49.09;100879.94;10345635;28;20136;-75
2021/06/14 06:58:44;;;;;;;7.03;3.28;;;;;;;19.57;48.63;100873.56;10343079;28;20364;-73
2021/06/14 07:03:47;;;;;;;4.75;2.70;;;;;;;19.70;48.38;100881.19;10346101;28;20065;-70
2021/06/14 07:08:48;;;;;;;4.47;2.25;;;;;;;19.87;47.98;100880.19;10345646;28;20504;-72
2021/06/14 07:13:49;;;;;;;4.80;2.60;;;;;;;20.07;46.73;100880.69;10343839;28;20164;-73
2021/06/14 07:18:52;;;;;;;4.88;2.75;;;;;;;20.06;46.91;100870.06;10344934;28;20068;-70
2021/06/14 07:23:54;;;;;;;4.47;2.10;;;;;;;20.17;46.57;100868.84;10354599;28;20137;-71
2021/06/14 07:28:56;;;;;;;5.32;2.65;;;;;;;20.34;46.69;100875.06;10329510;28;20049;-70
2021/06/14 07:34:00;;;;;;;4.15;2.25;;;;;;;20.64;46.65;100877.03;10343849;28;20045;-74
2021/06/14 07:39:04;;;;;;;2.63;2.40;;;;;;;20.78;46.21;100864.66;10325767;28;20077;-70
2021/06/14 07:44:05;;;;;;;4.03;2.20;;;;;;;20.95;46.07;100875.41;10326932;28;20109;-72
2021/06/14 07:49:07;;;;;;;4.30;2.50;;;;;;;21.24;44.26;100871.19;10343680;28;20057;-71
2021/06/14 07:54:08;;;;;;;5.05;2.35;;;;;;;21.34;44.45;100860.97;10344372;28;20526;-71
2021/06/14 07:59:10;;;;;;;4.15;2.38;;;;;;;21.47;44.08;100850.38;10343933;28;20041;-72
2021/06/14 08:04:12;;;;;;;5.35;2.58;;;;;;;21.67;42.56;100828.25;10342517;28;20122;-71
2021/06/14 08:09:20;;;;;;;4.82;2.25;;;;;;;21.80;42.98;100849.28;10324303;28;20125;-72
2021/06/14 08:14:22;;;;;;;6.40;3.42;;;;;;;21.80;42.63;100843.88;10342515;28;20132;-72
2021/06/14 08:29:57;;;;;;;6.03;3.17;;;;;;;22.79;40.02;100819.25;10342319;28;20038;-73
2021/06/14 08:34:58;;;;;;;4.57;2.10;;;;;;;22.58;40.48;100804.59;10342748;28;20136;-71
2021/06/14 08:40:00;;;;;;;32.85;23.95;;;;;;;22.74;40.23;100817.13;10339371;28;20065;-71
2021/06/14 08:45:02;;;;;;;4.68;2.35;;;;;;;22.94;39.20;100803.78;10338346;28;20560;-71
2021/06/14 08:50:07;;;;;;;6.20;2.27;;;;;;;23.21;39.05;100787.81;10332776;28;20137;-74
2021/06/14 08:55:12;;;;;;;2.83;2.15;;;;;;;23.59;38.37;100790.22;10341967;28;20060;-73
2021/06/14 09:00:21;;;;;;;3.90;2.00;;;;;;;23.54;38.15;100781.84;10342345;28;20145;-73
2021/06/14 09:05:23;;;;;;;7.78;2.58;;;;;;;23.69;37.88;100787.19;10341050;28;20065;-75
2021/06/14 09:10:29;;;;;;;3.77;2.00;;;;;;;23.81;38.83;100798.34;10343847;28;20073;-71
2021/06/14 09:15:30;;;;;;;4.32;2.42;;;;;;;24.02;37.72;100794.78;10348391;28;20623;-75
2021/06/14 09:20:34;;;;;;;5.07;2.00;;;;;;;24.32;37.08;100778.19;10344084;28;20480;-74
2021/06/14 09:25:35;;;;;;;3.33;1.95;;;;;;;24.72;36.54;100777.56;10353815;28;20052;-78
2021/06/14 09:30:37;;;;;;;4.70;2.15;;;;;;;25.08;35.51;100770.94;10373853;28;20046;-73
2021/06/14 09:35:41;;;;;;;6.38;2.22;;;;;;;25.19;35.09;100760.28;10353287;28;20133;-72
2021/06/14 09:40:57;;;;;;;4.45;2.03;;;;;;;25.55;33.72;100760.94;10343343;28;20683;-72
2021/06/14 09:46:01;;;;;;;4.00;1.83;;;;;;;25.65;33.62;100764.09;10321999;28;20042;-73
2021/06/14 09:51:07;;;;;;;3.92;2.10;;;;;;;26.10;32.52;100761.50;10336385;28;20096;-73
2021/06/14 09:56:19;;;;;;;5.45;2.00;;;;;;;26.05;33.20;100747.69;10338881;28;20185;-76
2021/06/14 10:01:30;;;;;;;3.28;1.55;;;;;;;26.16;33.05;100739.91;10337890;28;20128;-75
2021/06/14 10:06:42;;;;;;;3.92;1.52;;;;;;;26.67;31.09;100736.34;10351629;28;20057;-74
2021/06/14 10:11:46;;;;;;;3.40;1.90;;;;;;;27.05;31.19;100724.53;10351176;28;20057;-74
2021/06/14 10:16:52;;;;;;;3.05;1.42;;;;;;;26.81;31.92;100709.78;10347001;28;20058;-74
2021/06/14 10:21:54;;;;;;;5.22;1.92;;;;;;;27.12;29.71;100717.13;10339631;28;20125;-78
2021/06/14 10:26:55;;;;;;;4.90;1.90;;;;;;;27.42;30.49;100716.50;10346532;28;20073;-76
2021/06/14 10:31:57;;;;;;;4.50;2.35;;;;;;;27.57;29.91;100698.91;10346646;28;20129;-78
2021/06/14 10:36:59;;;;;;;2.58;1.35;;;;;;;27.43;29.63;100703.66;10329104;28;20073;-71
2021/06/14 10:42:01;;;;;;;2.67;1.45;;;;;;;27.73;28.33;100701.06;10342573;28;20046;-72
2021/06/14 10:47:03;;;;;;;3.67;1.83;;;;;;;27.94;28.11;100685.25;10344289;28;20500;-73
2021/06/14 10:52:06;;;;;;;3.08;1.40;;;;;;;28.15;28.93;100676.63;10345085;28;20049;-73
2021/06/14 10:57:10;;;;;;;3.78;2.10;;;;;;;28.14;28.72;100655.78;10345022;28;20519;-73
2021/06/14 11:02:14;;;;;;;3.85;2.00;;;;;;;28.38;27.32;100655.91;10346162;28;20073;-75
2021/06/14 11:07:16;;;;;;;6.05;1.88;;;;;;;28.16;28.38;100656.38;10338330;28;20054;-74
2021/06/14 11:12:28;;;;;;;3.47;1.60;;;;;;;28.10;29.21;100664.69;10346187;28;20057;-75
2021/06/14 11:17:37;;;;;;;4.30;1.90;;;;;;;27.91;28.48;100648.28;10346394;28;20104;-74
2021/06/14 11:22:44;;;;;;;2.45;1.52;;;;;;;28.16;27.87;100633.66;10345359;28;20049;-73
2021/06/14 11:27:46;;;;;;;4.80;1.60;;;;;;;28.31;27.25;100636.00;10352782;28;20041;-73
2021/06/14 11:32:47;;;;;;;5.53;2.00;;;;;;;28.37;27.39;100626.84;10333044;28;20073;-78
2021/06/14 11:37:50;;;;;;;4.10;1.53;;;;;;;28.62;27.04;100625.91;10360474;23;20515;-67
2021/06/14 11:42:54;;;;;;;3.88;1.88;;;;;;;28.59;28.15;100601.69;10417230;28;20139;-67
2021/06/14 11:47:59;;;;;;;3.33;1.95;;;;;;;28.79;26.59;100612.34;10418921;28;20087;-66
2021/06/14 11:53:04;;;;;;;4.28;1.85;;;;;;;28.90;25.97;100606.06;10403460;28;20132;-67
2021/06/14 11:58:08;;;;;;;3.97;1.73;;;;;;;28.60;25.65;100595.16;10428363;28;20060;-65
2021/06/14 12:03:21;;;;;;;3.70;1.50;;;;;;;28.55;26.79;100599.44;10406185;28;20551;-66
2021/06/14 12:08:23;;;;;;;;;;;;;;;28.69;26.50;100588.25;10423261;28;20041;-68
2021/06/14 12:13:25;;;;;;;2.53;1.42;;;;;;;28.81;26.80;100583.66;10391580;28;19971;-68
2021/06/14 12:18:27;;;;;;;2.28;1.17;;;;;;;28.68;26.86;100579.22;10415985;28;20065;-68
2021/06/14 12:23:41;;;;;;;3.30;1.52;;;;;;;28.67;25.80;100568.50;10421833;28;20049;-67
2021/06/14 12:28:43;;;;;;;6.15;1.65;;;;;;;28.66;26.51;100566.84;10417115;28;20706;-67
2021/06/14 12:33:45;;;;;;;2.72;1.60;;;;;;;28.78;26.79;100562.22;10399956;28;20367;-67
2021/06/14 12:38:51;;;;;;;3.78;1.10;;;;;;;28.74;25.94;100542.66;10420255;28;20166;-68
2021/06/14 12:43:53;;;;;;;4.45;1.40;;;;;;;28.62;25.67;100549.22;10421808;28;20140;-67
2021/06/14 12:48:55;;;;;;;3.33;1.42;;;;;;;28.67;26.84;100555.63;10409698;28;20076;-66
2021/06/14 12:54:01;;;;;;;3.80;1.80;;;;;;;28.83;26.14;100551.38;10404584;28;20045;-67
2021/06/14 12:59:02;;;;;;;4.68;1.60;;;;;;;28.91;26.74;100537.34;10401876;28;20053;-67
2021/06/14 13:04:10;;;;;;;3.20;1.20;;;;;;;28.69;26.71;100500.63;10406975;28;20028;-69
2021/06/14 13:09:13;;;;;;;3.78;1.27;;;;;;;28.83;26.82;100518.50;10430054;28;20047;-68
2021/06/14 13:14:26;;;;;;;5.45;1.40;;;;;;;28.75;25.89;100527.09;10390608;28;20053;-67
2021/06/14 13:19:28;;;;;;;;;;;;;;;28.61;26.20;100510.03;10420666;28;20045;-70
2021/06/14 13:24:40;;;;;;;2.80;1.67;;;;;;;28.64;26.57;100514.22;10400772;28;19921;-67
2021/06/14 13:29:53;;;;;;;5.00;1.38;;;;;;;28.61;25.91;100501.00;10404091;28;20129;-68
2021/06/14 13:35:00;;;;;;;2.45;1.65;;;;;;;28.45;26.51;100495.13;10423076;28;20053;-69
2021/06/14 13:40:15;;;;;;;2.10;1.23;;;;;;;28.39;26.94;100498.81;10421703;28;20060;-67
2021/06/14 13:45:27;;;;;;;4.53;1.60;;;;;;;28.45;27.86;100497.88;10401255;28;20042;-66
2021/06/14 13:50:33;;;;;;;5.07;1.70;;;;;;;28.32;27.04;100474.28;10402217;28;20138;-66
2021/06/14 13:55:36;;;;;;;4.35;1.85;;;;;;;28.18;26.29;100473.66;10418489;28;20064;-66
2021/06/14 14:00:37;;;;;;;3.00;1.27;;;;;;;28.10;27.13;100460.31;10392787;28;20257;-66
2021/06/14 14:05:39;;;;;;;2.20;1.60;;;;;;;28.11;26.68;100464.72;10418379;28;20138;-66
2021/06/14 14:10:42;;;;;;;4.78;1.48;;;;;;;28.01;27.55;100453.50;10418121;28;20096;-67
2021/06/14 14:15:43;;;;;;;2.30;1.65;;;;;;;28.08;27.64;100453.44;10415523;28;20140;-66
2021/06/14 14:20:46;;;;;;;2.75;1.73;;;;;;;27.89;27.34;100442.50;10403132;28;20127;-68
2021/06/14 14:25:48;;;;;;;4.13;1.48;;;;;;;27.78;28.01;100438.69;10400918;28;20140;-67
2021/06/14 14:30:50;;;;;;;2.13;1.35;;;;;;;27.88;28.60;100446.34;10424191;28;20061;-67
2021/06/14 14:36:02;;;;;;;4.43;1.70;;;;;;;27.86;28.03;100437.50;10419023;28;20471;-69
2021/06/14 14:41:10;;;;;;;5.20;2.00;;;;;;;27.68;27.64;100430.19;10397817;28;20140;-66
2021/06/14 14:46:13;;;;;;;3.17;1.58;;;;;;;27.65;27.88;100433.41;10414740;28;20138;-66
2021/06/14 14:51:14;;;;;;;3.30;1.45;;;;;;;27.51;28.36;100419.09;10422467;28;20416;-66
2021/06/14 14:56:16;;;;;;;3.53;1.60;;;;;;;27.46;28.75;100417.06;10423914;28;20085;-68
2021/06/14 15:01:17;;;;;;;3.83;1.57;;;;;;;27.58;28.59;100419.84;10411592;28;20057;-67
2021/06/14 15:06:20;;;;;;;6.37;1.87;;;;;;;27.51;28.94;100408.97;10421652;28;20048;-67
2021/06/14 15:11:22;;;;;;;3.75;1.08;;;;;;;27.47;29.27;100402.34;10406389;28;20102;-66
2021/06/14 15:16:24;;;;;;;3.53;1.60;;;;;;;27.48;29.00;100403.97;10404124;28;20570;-66
2021/06/14 15:21:25;;;;;;;3.70;1.88;;;;;;;27.53;29.41;100395.06;10402433;28;20048;-65
2021/06/14 15:26:27;;;;;;;2.35;1.83;;;;;;;27.51;30.00;100387.13;10423395;28;20057;-66
2021/06/14 15:31:29;;;;;;;3.80;1.60;;;;;;;27.54;29.75;100390.47;10402743;28;20057;-66
2021/06/14 15:36:31;;;;;;;2.15;1.70;;;;;;;27.49;29.39;100383.78;10409816;28;20055;-67
2021/06/14 15:41:32;;;;;;;4.23;1.23;;;;;;;27.48;29.75;100387.59;10419299;28;20479;-67
2021/06/14 15:46:34;;;;;;;2.95;1.45;;;;;;;27.49;30.68;100372.84;10421081;28;20095;-67
2021/06/14 15:51:39;;;;;;;3.80;1.35;;;;;;;27.51;30.34;100376.19;10415094;28;20049;-73
2021/06/14 15:56:41;;;;;;;1.83;1.05;;;;;;;27.45;31.07;100354.44;10421339;28;20191;-66
2021/06/14 16:01:42;;;;;;;2.17;1.30;;;;;;;27.46;31.20;100346.00;10407502;28;20526;-66
2021/06/14 16:06:44;;;;;;;2.05;0.93;;;;;;;27.54;31.09;100363.13;10424378;28;20463;-66
2021/06/14 16:11:45;;;;;;;3.83;1.60;;;;;;;27.47;31.38;100344.06;10424177;28;20135;-66
2021/06/14 16:16:47;;;;;;;2.40;1.47;;;;;;;27.40;30.94;100341.47;10389906;28;20091;-66
2021/06/14 16:21:48;;;;;;;4.22;1.70;;;;;;;27.42;30.94;100331.13;10403187;28;20122;-67
2021/06/14 16:26:50;;;;;;;1.92;1.30;;;;;;;27.47;31.26;100353.13;10416546;28;20150;-66
2021/06/14 16:31:51;;;;;;;2.88;1.40;;;;;;;27.49;31.67;100339.22;10415500;28;20131;-66
2021/06/14 16:36:55;;;;;;;2.40;1.63;;;;;;;27.40;31.28;100327.78;10415910;28;20057;-66
2021/06/14 16:41:56;;;;;;;3.17;1.23;;;;;;;27.45;31.58;100329.81;10411450;28;20446;-66
2021/06/14 16:46:58;;;;;;;3.88;1.20;;;;;;;27.43;31.28;100330.06;10410774;28;20100;-69
2021/06/14 16:51:59;;;;;;;3.45;1.52;;;;;;;27.42;31.73;100327.56;10422761;28;20044;-66
2021/06/14 16:57:01;;;;;;;4.10;1.33;;;;;;;27.41;31.41;100326.72;10409588;28;20116;-67
2021/06/14 17:02:03;;;;;;;2.65;1.75;;;;;;;27.39;31.64;100320.66;10421526;28;20077;-67
2021/06/14 17:07:04;;;;;;;3.33;1.67;;;;;;;27.36;31.26;100333.97;10412865;28;20446;-67
2021/06/14 17:12:07;;;;;;;3.33;1.40;;;;;;;27.13;31.39;100300.81;10413107;28;20057;-67
2021/06/14 17:17:10;;;;;;;2.33;1.08;;;;;;;27.24;31.52;100329.25;10414059;28;20714;-67
2021/06/14 17:22:12;;;;;;;3.25;1.50;;;;;;;27.21;31.69;100332.44;10393850;28;20179;-67
2021/06/14 17:27:13;;;;;;;2.30;1.37;;;;;;;27.16;31.64;100324.94;10399490;28;20191;-66
2021/06/14 17:32:16;;;;;;;2.60;1.33;;;;;;;27.04;31.76;100313.13;10397398;28;20052;-67
2021/06/14 17:37:18;;;;;;;3.00;1.50;;;;;;;27.03;31.74;100324.31;10407196;28;20044;-66
2021/06/14 17:42:19;;;;;;;3.13;1.70;;;;;;;26.90;32.05;100315.22;10412036;28;20136;-66
2021/06/14 17:47:22;;;;;;;5.53;1.50;;;;;;;26.87;32.38;100323.84;10398769;28;20167;-65
2021/06/14 17:52:23;;;;;;;2.20;1.35;;;;;;;26.77;33.13;100321.69;10415074;28;20235;-64
2021/06/14 17:57:27;;;;;;;1.88;1.33;;;;;;;26.74;32.94;100321.31;10397744;28;20106;-65
2021/06/14 18:02:28;;;;;;;2.65;1.52;;;;;;;26.64;33.57;100321.81;10416252;28;20135;-64
2021/06/14 18:07:30;;;;;;;2.65;1.60;;;;;;;26.46;33.55;100312.53;10395943;28;20503;-66
2021/06/14 18:12:31;;;;;;;3.28;1.45;;;;;;;26.41;33.71;100315.13;10413514;28;20514;-67
2021/06/14 18:17:36;;;;;;;5.10;1.70;;;;;;;26.38;33.94;100323.78;10391248;28;20055;-66
2021/06/14 18:22:55;;;;;;;3.85;1.30;;;;;;;26.24;34.42;100305.88;10413081;28;20059;-66
2021/06/14 18:27:57;;;;;;;3.17;1.42;;;;;;;26.14;34.53;100309.13;10405983;28;20136;-66
2021/06/14 18:33:20;;;;;;;3.03;1.40;;;;;;;26.02;34.72;100317.22;10406464;28;20061;-66
2021/06/14 18:38:25;;;;;;;2.13;1.40;;;;;;;25.98;35.08;100312.41;10422409;28;20114;-65
2021/06/14 18:43:27;;;;;;;3.95;1.50;;;;;;;25.89;35.05;100320.84;10422120;28;20446;-66
2021/06/14 18:48:28;;;;;;;2.20;1.53;;;;;;;25.80;35.41;100315.91;10423724;28;20124;-66
2021/06/14 18:53:30;;;;;;;2.75;1.63;;;;;;;25.64;35.86;100315.41;10420225;28;20061;-68
2021/06/14 18:58:31;;;;;;;3.35;1.52;;;;;;;25.57;36.08;100317.34;10421851;28;20915;-65
2021/06/14 19:03:33;;;;;;;2.72;1.42;;;;;;;25.53;35.84;100329.75;10417972;28;20061;-67
2021/06/14 19:08:34;;;;;;;3.08;1.40;;;;;;;25.30;36.10;100314.81;10420141;28;20128;-67
2021/06/14 19:13:36;;;;;;;3.63;2.22;;;;;;;25.24;36.44;100319.19;10415778;28;20122;-67
2021/06/14 19:18:38;;;;;;;3.30;1.40;;;;;;;25.20;36.52;100330.75;10418850;28;20191;-67
2021/06/14 19:23:39;;;;;;;4.20;1.80;;;;;;;25.09;36.89;100334.19;10401843;28;20046;-66
2021/06/14 19:28:41;;;;;;;4.82;1.58;;;;;;;25.06;36.85;100343.63;10422279;28;20136;-66
2021/06/14 19:33:43;;;;;;;2.97;1.67;;;;;;;24.95;37.12;100338.84;10421145;28;20466;-65
2021/06/14 19:38:45;;;;;;;3.70;2.08;;;;;;;24.81;36.99;100329.91;10419365;28;20157;-68
2021/06/14 19:43:46;;;;;;;2.65;1.90;;;;;;;24.59;37.09;100319.31;10403798;28;20064;-68
2021/06/14 19:48:48;;;;;;;2.70;2.17;;;;;;;24.69;36.95;100357.75;10421963;28;20101;-66
2021/06/14 19:53:50;;;;;;;2.50;1.63;;;;;;;24.62;37.18;100358.84;10402157;28;20052;-67
2021/06/14 19:58:52;;;;;;;3.28;1.33;;;;;;;24.53;37.10;100360.94;10406078;28;20135;-67
2021/06/14 20:03:54;;;;;;;7.15;3.20;;;;;;;24.44;38.11;100359.47;10446186;28;20049;-66
2021/06/14 20:08:55;;;;;;;4.13;3.30;;;;;;;24.34;39.48;100358.03;10406002;28;20143;-66
2021/06/14 20:13:56;;;;;;;5.43;3.20;;;;;;;24.28;39.50;100364.31;10400596;28;20670;-66
2021/06/14 20:18:58;;;;;;;5.60;2.83;;;;;;;24.17;39.20;100362.25;10402436;28;20077;-67
2021/06/14 20:23:59;;;;;;;3.85;2.90;;;;;;;24.13;39.01;100367.25;10399893;28;20094;-66
2021/06/14 20:29:01;;;;;;;3.95;2.60;;;;;;;24.06;39.49;100365.59;10415142;28;20136;-67
2021/06/14 20:34:02;;;;;;;6.35;4.88;;;;;;;23.99;40.09;100369.16;10415943;28;20139;-67
2021/06/14 20:39:06;;;;;;;4.20;2.97;;;;;;;23.89;39.80;100366.00;10418176;28;20094;-67
2021/06/14 20:44:08;;;;;;;4.35;2.78;;;;;;;23.87;40.77;100368.13;10421934;28;20694;-68
2021/06/14 20:49:10;;;;;;;4.10;2.40;;;;;;;23.62;39.81;100349.66;10399652;28;20523;-69
2021/06/14 20:54:11;;;;;;;5.15;2.67;;;;;;;23.51;40.06;100336.69;10402013;28;20470;-69
2021/06/14 20:59:12;;;;;;;4.20;2.75;;;;;;;23.54;40.33;100365.31;10432923;28;20064;-69
2021/06/14 21:04:14;;;;;;;5.88;3.10;;;;;;;23.47;41.81;100357.16;10406090;28;20132;-68
2021/06/14 21:09:15;;;;;;;5.03;2.90;;;;;;;23.38;42.94;100361.13;10420167;28;20636;-69
2021/06/14 21:14:17;;;;;;;3.50;2.20;;;;;;;23.22;43.13;100371.28;10420456;28;21794;-69
2021/06/14 21:19:19;;;;;;;3.30;2.80;;;;;;;23.17;44.15;100356.66;10405273;28;20419;-69
2021/06/14 21:24:20;;;;;;;3.25;2.33;;;;;;;23.23;44.72;100358.56;10401000;28;20137;-69
2021/06/14 21:29:26;;;;;;;3.90;2.75;;;;;;;23.20;44.89;100362.53;10402619;28;20051;-69
2021/06/14 21:34:28;;;;;;;4.80;2.95;;;;;;;23.11;45.24;100345.56;10395594;28;20469;-68
2021/06/14 21:39:31;;;;;;;6.25;2.72;;;;;;;23.16;44.79;100358.53;10398312;28;20483;-69
2021/06/14 21:44:32;;;;;;;3.63;2.72;;;;;;;23.10;44.98;100362.06;10414045;28;20068;-69
2021/06/14 21:49:33;;;;;;;4.78;2.85;;;;;;;23.04;45.12;100357.41;10394155;28;20084;-69
2021/06/14 21:54:35;;;;;;;5.13;2.80;;;;;;;22.99;46.10;100358.03;10390979;28;20124;-68
2021/06/14 21:59:36;;;;;;;6.85;4.28;;;;;;;22.94;45.33;100366.78;10428925;28;20113;-68
2021/06/14 22:04:37;;;;;;;5.38;4.07;;;;;;;22.78;45.91;100350.84;10418979;28;20056;-69
2021/06/14 22:09:39;;;;;;;4.40;3.60;;;;;;;22.74;45.58;100357.69;10403263;28;20044;-68
2021/06/14 22:14:40;;;;;;;5.25;3.35;;;;;;;22.69;45.81;100373.75;10424397;28;20346;-67
2021/06/14 22:19:41;;;;;;;3.70;3.15;;;;;;;22.62;45.68;100367.44;10433629;28;20440;-67
2021/06/14 22:24:43;;;;;;;6.05;3.55;;;;;;;22.53;46.24;100373.06;10415135;28;20075;-68
2021/06/14 22:29:47;;;;;;;4.63;3.83;;;;;;;22.41;47.17;100353.78;10424151;28;20159;-67
2021/06/14 22:34:48;;;;;;;7.85;3.53;;;;;;;22.40;47.47;100356.69;10408863;28;20068;-68
2021/06/14 22:39:52;;;;;;;7.55;3.17;;;;;;;22.30;48.44;100348.03;10406771;28;20098;-67
2021/06/14 22:44:54;;;;;;;3.88;3.05;;;;;;;22.27;49.04;100345.72;10426068;28;20045;-68
2021/06/14 22:49:55;;;;;;;4.75;2.90;;;;;;;22.23;49.13;100356.09;10409479;28;20069;-68
2021/06/14 22:54:58;;;;;;;3.15;2.67;;;;;;;22.14;49.49;100352.69;10402937;28;20472;-68
2021/06/14 22:59:59;;;;;;;3.20;2.50;;;;;;;22.10;49.57;100356.88;10424857;28;20126;-68
2021/06/14 23:05:01;;;;;;;3.67;2.55;;;;;;;22.01;49.94;100348.03;10417949;28;20125;-69
2021/06/14 23:10:09;;;;;;;4.47;2.60;;;;;;;21.96;50.29;100360.50;10414428;28;20095;-69
2021/06/14 23:15:11;;;;;;;4.57;2.65;;;;;;;21.92;50.65;100359.19;10396830;28;20454;-68
2021/06/14 23:20:14;;;;;;;2.60;2.40;;;;;;;21.79;50.61;100355.34;10398627;28;20570;-68
2021/06/14 23:25:16;;;;;;;4.10;2.43;;;;;;;21.75;50.99;100348.63;10417621;28;20099;-68